Informes METAR cercanos

 

LELL - Sabadell, Spain
Distance from station: O 25km
Actualización: 06/07/2022 16:00:00
Poco nuboso
Poco nuboso
 Viento del NE
Viento: NE 4 km/h
Temperatura: 29°C
Heat Index: 29°C
Rocío: 16°C
Humedad: 45%
Barómetro: 1019 hPa
Clouds: Poco nuboso
Visibility: 10 km
Cloud details: Poco nuboso 1981 m
2022/07/06 14:00 LELL 061400Z 04002KT 9999 FEW065 29/16 Q1019
LEBL - Barcelona Airpor, Spain
Distance from station: SO 38km
Actualización: 06/07/2022 16:00:00
Poco nuboso
Poco nuboso
 Viento del SO
Viento: SO 13 km/h
Temperatura: 26°C
Rocío: 19°C
Humedad: 65%
Barómetro: 1019 hPa
Clouds: Poco nuboso
Visibility: 10 km
Cloud details: Poco nuboso 1524 m
2022/07/06 14:00 LEBL 061400Z 22007KT 9999 FEW050 26/19 Q1019 NOSIG
 
LEGE - Gerona/Costa Bra, Spain
Distance from station: NE 52km
Actualización: 06/07/2022 16:00:00
Poco nuboso
Poco nuboso
 Viento del SSE
Viento: SSE 6 km/h
Temperatura: 29°C
Heat Index: 29°C
Rocío: 16°C
Humedad: 45%
Barómetro: 1018 hPa
Clouds: Poco nuboso
Visibility: 10 km
Cloud details: Poco nuboso 2438 m
2022/07/06 14:00 LEGE 061400Z 15003KT 9999 FEW080 29/16 Q1018
LERS - Reus (civ/Mil), Spain
Distance from station: OSO 111km
Actualización: 06/07/2022 16:00:00
Poco nuboso
Poco nuboso
 Viento del varies
Viento: varies 4 km/h
Temperatura: 30°C
Heat Index: 31°C
Rocío: 17°C
Humedad: 46%
Barómetro: 1020 hPa
Clouds: Poco nuboso
Visibility: 10 km
Cloud details: Poco nuboso 914 m
Poco nuboso 1219 m
2022/07/06 14:00 LERS 061400Z VRB02KT 9999 FEW030 FEW040TCU 30/17 Q1020
 
LESU - Pirineus/La Seu, Spain
Distance from station: NO 124km
Actualización: 06/07/2022 14:30:00
NOT Current
Lluvia débil, Nearby fog, Cubierto
Lluvia débil, Nearby fog, Cubierto
 Viento del N
Viento: N 11 km/h
Temperatura: 17°C
Rocío: 16°C
Humedad: 94%
Barómetro: 1027 hPa
Resumen: Lluvia débil, Nearby fog
Clouds: Cubierto
Visibility: 10 km
Cloud details: Poco nuboso 975 m
Parcialmente nuboso 1829 m
Cubierto 2865 m
2022/07/06 12:30 LESU 061230Z 01006KT 310V060 9999 -RA VCFG FEW032 SCT060 OVC094 17/16 Q1027 RERA
LFMP - Perpignan/Rivesa, France
Distance from station: NNE 141km
Actualización: 06/07/2022 16:24:33
unable to load LFMP data RC=
unable to load LFMP data RC=